createdAt,value
2018-11-21T00:00:35.603Z,17.60
2018-11-21T00:03:23.315Z,19.60
2018-11-21T00:06:11.148Z,18.03
2018-11-21T00:08:59.010Z,17.87
2018-11-21T00:12:04.716Z,18.13
2018-11-21T00:14:52.575Z,18.90
2018-11-21T00:20:29.212Z,19.33
2018-11-21T00:23:17.078Z,18.37
2018-11-21T00:26:05.173Z,19.10
2018-11-21T00:28:53.033Z,18.13
2018-11-21T00:31:40.871Z,18.90
2018-11-21T00:34:28.750Z,18.90
2018-11-21T00:37:52.138Z,19.00
2018-11-21T00:40:57.766Z,19.97
2018-11-21T00:43:45.604Z,19.43
2018-11-21T00:46:32.206Z,19.70
2018-11-21T00:52:50.476Z,19.82
2018-11-21T00:55:38.341Z,19.97
2018-11-21T01:02:10.174Z,20.25
2018-11-21T01:04:58.044Z,19.87
2018-11-21T01:08:03.786Z,20.37
2018-11-21T01:10:51.659Z,19.55
2018-11-21T01:17:23.482Z,19.92
2018-11-21T01:20:11.266Z,19.90
2018-11-21T01:22:59.105Z,19.87
2018-11-21T01:25:46.969Z,20.77
2018-11-21T01:28:34.803Z,20.20
2018-11-21T01:31:21.801Z,20.83
2018-11-21T01:36:58.450Z,19.98
2018-11-21T01:39:46.280Z,20.47
2018-11-21T01:42:34.150Z,18.80
2018-11-21T01:45:23.025Z,19.27
2018-11-21T01:48:10.940Z,26.07
2018-11-21T01:50:58.831Z,20.63
2018-11-21T01:53:46.676Z,21.57
2018-11-21T01:56:28.043Z,20.30
2018-11-21T01:59:08.394Z,20.52
2018-11-21T02:01:49.385Z,17.60
2018-11-21T02:07:48.668Z,18.67
2018-11-21T02:10:29.156Z,20.12
2018-11-21T02:13:10.253Z,19.67
2018-11-21T02:15:51.408Z,18.95
2018-11-21T02:21:51.215Z,21.30
2018-11-21T02:27:51.037Z,19.23
2018-11-21T02:36:54.594Z,20.92
2018-11-21T02:39:35.695Z,19.57
2018-11-21T02:42:16.605Z,19.92
2018-11-21T02:44:57.857Z,19.87
2018-11-21T02:50:43.571Z,18.98
2018-11-21T02:56:33.495Z,20.88
2018-11-21T02:59:14.744Z,20.20
2018-11-21T03:05:14.880Z,20.23
2018-11-21T03:07:59.693Z,20.23
2018-11-21T03:13:59.452Z,19.80
2018-11-21T03:16:38.362Z,21.05
2018-11-21T03:19:26.313Z,21.68
2018-11-21T03:25:21.558Z,20.97
2018-11-21T03:28:09.427Z,21.40
2018-11-21T03:30:57.293Z,20.88
2018-11-21T03:33:45.130Z,21.48
2018-11-21T03:36:32.974Z,20.02
2018-11-21T03:39:22.124Z,21.17
2018-11-21T03:42:09.962Z,23.45
2018-11-21T03:44:58.029Z,22.95
2018-11-21T03:47:45.891Z,22.90
2018-11-21T03:50:33.762Z,21.07
2018-11-21T03:53:21.673Z,21.00
2018-11-21T03:56:09.515Z,22.22
2018-11-21T03:59:15.329Z,22.60
2018-11-21T04:02:03.166Z,20.80
2018-11-21T04:04:51.044Z,21.17
2018-11-21T04:10:46.175Z,22.17
2018-11-21T04:17:02.949Z,22.07
2018-11-21T04:19:50.814Z,20.92
2018-11-21T04:22:38.993Z,21.37
2018-11-21T04:25:26.855Z,21.87
2018-11-21T04:28:14.730Z,21.70
2018-11-21T04:31:02.571Z,22.13
2018-11-21T04:34:09.107Z,20.90
2018-11-21T04:36:56.985Z,21.12
2018-11-21T04:39:44.857Z,20.95
2018-11-21T04:42:50.850Z,20.88
2018-11-21T04:45:38.722Z,21.15
2018-11-21T04:51:20.161Z,23.27
2018-11-21T04:54:08.021Z,21.95
2018-11-21T04:56:55.868Z,21.27
2018-11-21T04:59:43.740Z,22.95
2018-11-21T05:05:20.380Z,21.20
2018-11-21T05:08:08.217Z,21.37
2018-11-21T05:10:56.083Z,21.93
2018-11-21T05:13:43.950Z,21.33
2018-11-21T05:16:31.801Z,20.57
2018-11-21T05:19:19.685Z,21.95
2018-11-21T05:22:07.522Z,19.92
2018-11-21T05:24:55.088Z,21.97
2018-11-21T05:27:42.968Z,21.70
2018-11-21T05:30:30.937Z,21.45
2018-11-21T05:33:18.782Z,21.65
2018-11-21T05:36:06.638Z,20.15
2018-11-21T05:38:54.518Z,21.85
2018-11-21T05:41:42.350Z,22.40
2018-11-21T05:48:00.767Z,22.40
2018-11-21T05:50:48.650Z,21.07
2018-11-21T05:53:36.510Z,21.30
2018-11-21T05:56:24.375Z,22.00
2018-11-21T05:59:12.337Z,22.10
2018-11-21T06:02:00.191Z,21.62
2018-11-21T06:04:48.071Z,21.42
2018-11-21T06:07:35.900Z,21.12
2018-11-21T06:10:23.082Z,21.85
2018-11-21T06:13:10.920Z,22.82
2018-11-21T06:15:58.803Z,23.27
2018-11-21T06:18:46.768Z,22.95
2018-11-21T06:21:34.629Z,22.98
2018-11-21T06:24:22.502Z,22.20
2018-11-21T06:27:11.193Z,21.02
2018-11-21T06:29:58.222Z,23.07
2018-11-21T06:32:46.101Z,22.37
2018-11-21T06:38:41.520Z,28.80
2018-11-21T06:41:29.397Z,41.25
2018-11-21T06:44:17.273Z,25.65
2018-11-21T06:47:05.210Z,24.85
2018-11-21T06:49:53.101Z,22.35
2018-11-21T06:52:40.946Z,23.07
2018-11-21T06:58:41.507Z,22.65
2018-11-21T07:01:29.047Z,21.60
2018-11-21T07:04:37.109Z,21.23
2018-11-21T07:07:48.619Z,21.90
2018-11-21T07:10:44.508Z,22.02
2018-11-21T07:16:23.470Z,21.87
2018-11-21T07:22:57.077Z,22.82
2018-11-21T07:25:44.945Z,21.15
2018-11-21T07:28:32.833Z,20.70
2018-11-21T07:31:38.671Z,20.45
2018-11-21T07:38:10.367Z,23.45
2018-11-21T07:40:58.233Z,23.00
2018-11-21T07:43:46.073Z,22.77
2018-11-21T07:46:33.948Z,23.07
2018-11-21T07:49:21.868Z,21.30
2018-11-21T07:52:12.642Z,20.37
2018-11-21T07:55:00.490Z,20.97
2018-11-21T07:57:56.164Z,20.72
2018-11-21T08:01:04.826Z,20.65
2018-11-21T08:03:52.742Z,20.57
2018-11-21T08:06:59.845Z,20.37
2018-11-21T08:10:06.793Z,20.75
2018-11-21T08:16:45.811Z,19.17
2018-11-21T08:19:52.914Z,20.12
2018-11-21T08:22:59.885Z,20.23
2018-11-21T08:26:06.857Z,20.90
2018-11-21T08:28:54.712Z,19.67
2018-11-21T08:31:42.573Z,21.05
2018-11-21T08:34:48.460Z,20.20
2018-11-21T08:37:36.369Z,20.25
2018-11-21T08:40:24.221Z,20.55
2018-11-21T08:43:12.115Z,21.80
2018-11-21T08:45:59.949Z,19.37
2018-11-21T08:48:47.813Z,17.37
2018-11-21T08:51:35.700Z,18.87
2018-11-21T08:54:23.581Z,18.87
2018-11-21T08:57:11.419Z,19.80
2018-11-21T08:59:59.274Z,19.00
2018-11-21T09:02:47.114Z,18.47
2018-11-21T09:05:34.972Z,18.83
2018-11-21T09:08:22.833Z,19.13
2018-11-21T09:11:10.671Z,19.03
2018-11-21T09:13:58.698Z,18.83
2018-11-21T09:16:46.535Z,18.40
2018-11-21T09:26:34.751Z,20.37
2018-11-21T09:29:21.391Z,19.12
2018-11-21T09:32:46.065Z,19.23
2018-11-21T09:35:33.951Z,19.17
2018-11-21T09:42:06.092Z,19.90
2018-11-21T09:44:53.928Z,18.65
2018-11-21T09:47:41.889Z,19.48
2018-11-21T09:53:24.160Z,20.85
2018-11-21T09:56:12.035Z,18.90
2018-11-21T09:59:00.269Z,21.02
2018-11-21T10:02:07.765Z,20.00
2018-11-21T10:04:55.797Z,19.83
2018-11-21T10:07:56.873Z,18.03
2018-11-21T10:10:44.744Z,18.50
2018-11-21T10:16:21.414Z,18.62
2018-11-21T10:19:27.183Z,19.77
2018-11-21T10:22:14.869Z,19.15
2018-11-21T10:25:38.624Z,19.30
2018-11-21T10:29:03.464Z,18.95
2018-11-21T10:31:51.329Z,18.57
2018-11-21T10:38:11.641Z,18.17
2018-11-21T10:40:59.547Z,17.67
2018-11-21T10:43:47.414Z,18.67
2018-11-21T10:46:37.188Z,18.40
2018-11-21T10:52:32.432Z,19.65
2018-11-21T10:55:20.318Z,19.37
2018-11-21T10:58:07.573Z,19.20
2018-11-21T11:04:06.541Z,18.17
2018-11-21T11:07:13.503Z,20.00
2018-11-21T11:14:05.201Z,20.10
2018-11-21T11:16:52.262Z,19.43
2018-11-21T11:26:02.073Z,18.25
2018-11-21T11:28:50.425Z,20.10
2018-11-21T11:35:26.533Z,20.43
2018-11-21T11:38:14.772Z,20.93
2018-11-21T11:41:28.441Z,19.03
2018-11-21T11:47:46.312Z,19.67
2018-11-21T11:54:25.377Z,18.67
2018-11-21T11:57:34.359Z,18.67
2018-11-21T12:03:30.109Z,18.33
2018-11-21T12:06:37.072Z,18.27
2018-11-21T12:09:44.031Z,18.27
2018-11-21T12:12:32.876Z,19.70
2018-11-21T12:15:38.844Z,17.40
2018-11-21T12:18:25.685Z,19.07
2018-11-21T12:21:32.637Z,19.53
2018-11-21T12:27:50.574Z,19.57
2018-11-21T12:30:57.546Z,19.30
2018-11-21T12:34:07.070Z,19.13
2018-11-21T12:46:30.877Z,19.97
2018-11-21T12:49:37.857Z,20.57
2018-11-21T12:52:31.115Z,20.53
2018-11-21T12:55:38.086Z,20.90
2018-11-21T12:58:25.611Z,19.83
2018-11-21T13:04:21.353Z,19.70
2018-11-21T13:07:28.355Z,20.93
2018-11-21T13:13:49.497Z,19.57
2018-11-21T13:20:23.549Z,17.60
2018-11-21T13:27:13.286Z,18.57
2018-11-21T13:30:20.218Z,18.10
2018-11-21T13:33:27.135Z,17.67
2018-11-21T13:36:35.970Z,18.53
2018-11-21T13:39:42.920Z,19.20
2018-11-21T13:46:30.004Z,17.80
2018-11-21T13:49:55.261Z,17.97
2018-11-21T13:53:18.646Z,17.80
2018-11-21T13:56:06.502Z,18.63
2018-11-21T14:02:25.001Z,17.67
2018-11-21T14:05:12.864Z,18.43
2018-11-21T14:08:00.706Z,18.10
2018-11-21T14:10:48.093Z,18.50
2018-11-21T14:20:48.139Z,19.07
2018-11-21T14:23:35.986Z,18.60
2018-11-21T14:26:41.641Z,18.07
2018-11-21T14:29:29.466Z,20.03
2018-11-21T14:32:17.329Z,18.80
2018-11-21T14:38:51.529Z,19.23
2018-11-21T14:41:41.454Z,17.37
2018-11-21T14:44:45.900Z,16.60
2018-11-21T14:47:33.758Z,16.20
2018-11-21T14:50:22.590Z,17.87
2018-11-21T15:00:22.863Z,19.82
2018-11-21T15:03:09.807Z,20.03
2018-11-21T15:05:57.651Z,20.13
2018-11-21T15:08:45.651Z,19.57
2018-11-21T15:11:32.995Z,17.33
2018-11-21T15:14:20.815Z,18.83
2018-11-21T15:17:08.670Z,19.40
2018-11-21T15:19:56.562Z,19.53
2018-11-21T15:23:02.279Z,18.77
2018-11-21T15:25:50.150Z,17.40
2018-11-21T15:28:37.968Z,16.70
2018-11-21T15:31:25.825Z,17.43
2018-11-21T15:34:13.682Z,18.10
2018-11-21T15:37:01.548Z,16.67
2018-11-21T15:40:07.439Z,17.07
2018-11-21T15:42:55.292Z,17.90
2018-11-21T15:45:43.114Z,17.73
2018-11-21T15:48:30.960Z,17.97
2018-11-21T15:51:18.786Z,19.20
2018-11-21T15:54:05.501Z,20.30
2018-11-21T15:56:53.352Z,19.83
2018-11-21T15:59:41.189Z,24.07
2018-11-21T16:02:29.041Z,19.13
2018-11-21T16:08:05.885Z,19.50
2018-11-21T16:10:53.704Z,17.63
2018-11-21T16:13:41.563Z,18.37
2018-11-21T16:16:29.376Z,18.93
2018-11-21T16:19:17.222Z,17.57
2018-11-21T16:22:05.263Z,19.03
2018-11-21T16:24:53.113Z,17.42
2018-11-21T16:27:41.171Z,15.83
2018-11-21T16:30:28.978Z,17.30
2018-11-21T16:33:34.565Z,15.43
2018-11-21T16:36:27.091Z,17.60
2018-11-21T16:39:11.186Z,18.87
2018-11-21T16:41:59.019Z,18.53
2018-11-21T16:44:46.939Z,19.50
2018-11-21T16:47:34.753Z,18.87
2018-11-21T16:50:22.635Z,19.10
2018-11-21T16:53:10.521Z,18.60
2018-11-21T16:55:58.962Z,18.30
2018-11-21T16:58:46.813Z,18.47
2018-11-21T17:01:37.090Z,25.67
2018-11-21T17:04:24.935Z,20.23
2018-11-21T17:07:48.567Z,21.43
2018-11-21T17:10:54.511Z,21.77
2018-11-21T17:14:00.307Z,21.17
2018-11-21T17:17:23.710Z,22.97
2018-11-21T17:20:13.845Z,23.17
2018-11-21T17:25:50.465Z,21.50
2018-11-21T17:28:38.301Z,21.37
2018-11-21T17:31:44.144Z,21.20
2018-11-21T17:34:49.991Z,20.10
2018-11-21T17:37:37.995Z,19.97
2018-11-21T17:40:30.891Z,20.57
2018-11-21T17:43:36.742Z,20.33
2018-11-21T17:46:24.609Z,19.50
2018-11-21T17:49:30.331Z,19.00
2018-11-21T17:55:07.863Z,20.52
2018-11-21T17:57:55.668Z,19.80
2018-11-21T18:00:43.530Z,20.15
2018-11-21T18:03:31.380Z,18.83
2018-11-21T18:06:19.661Z,19.10
2018-11-21T18:09:08.988Z,19.60
2018-11-21T18:11:56.888Z,20.17
2018-11-21T18:14:44.431Z,22.27
2018-11-21T18:17:32.297Z,19.25
2018-11-21T18:20:20.835Z,18.27
2018-11-21T18:23:08.679Z,18.67
2018-11-21T18:25:56.535Z,19.17
2018-11-21T18:31:32.484Z,18.57
2018-11-21T18:34:20.301Z,19.50
2018-11-21T18:37:08.169Z,18.17
2018-11-21T18:39:55.467Z,19.63
2018-11-21T18:42:43.289Z,18.77
2018-11-21T18:45:30.614Z,18.40
2018-11-21T18:48:18.428Z,18.50
2018-11-21T18:51:06.299Z,17.70
2018-11-21T18:57:20.577Z,17.65
2018-11-21T19:00:07.737Z,17.00
2018-11-21T19:02:55.590Z,18.33
2018-11-21T19:05:43.286Z,17.13
2018-11-21T19:08:31.116Z,17.83
2018-11-21T19:11:19.015Z,17.60
2018-11-21T19:14:07.324Z,17.70
2018-11-21T19:16:55.122Z,17.70
2018-11-21T19:19:42.969Z,18.30
2018-11-21T19:22:30.863Z,18.03
2018-11-21T19:25:18.656Z,17.43
2018-11-21T19:28:06.523Z,18.53
2018-11-21T19:30:54.362Z,17.63
2018-11-21T19:37:26.381Z,17.90
2018-11-21T19:43:22.129Z,18.57
2018-11-21T19:49:37.530Z,18.73
2018-11-21T19:52:25.373Z,19.47
2018-11-21T19:58:19.942Z,18.87
2018-11-21T20:01:07.632Z,18.90
2018-11-21T20:03:55.438Z,19.00
2018-11-21T20:06:43.301Z,20.27
2018-11-21T20:09:48.934Z,20.13
2018-11-21T20:15:30.348Z,19.82
2018-11-21T20:18:18.217Z,18.70
2018-11-21T20:21:23.937Z,19.57
2018-11-21T20:24:11.765Z,19.20
2018-11-21T20:26:59.703Z,18.43
